Delta State, Mississippi
Current Conditions -  °F | °C
As of 4:15 AM on Thursday 29 Jan 2015 (Local Time) from KRNV Reporting Station
Scattered Clouds Scattered Clouds  
Wind Chill: 50°   Ceiling: Unl
Heat Index: 50°   Visibility: 10mi
Dew Point: 45°   Wind: 8mph
Humidity: 82%   Direction: 190°S
Pressure: 30.09"   Gusts: NA
Location:  33.7476°N, 90.8364°W
Report Text: KRNV 291015Z AUTO 19007KT 10SM SCT100 10/07 A3009 RMK AO2 T01000071
Loading
Personal Weather Stations






























Interactive Weather Map New forecast layout! Learn more

10-Day Weather Forecast

Advertisements
Track Severe Weather on mobile